CYDF/YDF METAR and TAF weather

Enter ICAO airport designator
Station Type Date Time Source
CYDF METAR 2020/06/02 18:36 UTC NOAA

CYDF 021836Z 09015G26KT 15SM BKN023 18/14 A2961 RMK SC7 SLP030 DENSITY ALT 800FT


Station Type Date Time Source
CYDF Decoded METAR 2020/06/02 18:36 UTC NOAA

Deer Lake, Nfld., Canada (CYDF) 49-13N 057-24W 22M
Jun 02, 2020 - 02:36 PM EDT / 2020.06.02 1836 UTC
Wind: from the E (090 degrees) at 17 MPH (15 KT) gusting to 30 MPH (26 KT):0
Visibility: 15 mile(s):0
Sky conditions: mostly cloudy
Temperature: 64 F (18 C)
Dew Point: 57 F (14 C)
Relative Humidity: 77%
Pressure (altimeter): 29.61 in. Hg (1002 hPa)
ob: CYDF 021836Z 09015G26KT 15SM BKN023 18/14 A2961 RMK SC7 SLP030 DENSITY ALT 800FT
cycle: 18

Station Type Date Time Source
CYDF TAF 2020/06/02 14:51 UTC NOAA

TAF CYDF 021350Z 0214/0302 03005KT 5SM -RA BR OVC015
TEMPO 0214/0222 P6SM NSW OVC025
BECMG 0214/0216 10015G30KT
FM022200 11015G25KT P6SM OVC015
BECMG 0300/0302 11008KT
RMK NXT FCST BY 022000Z

Example: see airport list